Time;durP1;ratioP1;P1;durP2;ratioP2;P2;SDS_P1;SDS_P2;PMS_P1;PMS_P2;Temp;Humidity;BMP_temperature;BMP_pressure;BME280_temperature;BME280_humidity;BME280_pressure;Samples;Min_cycle;Max_cycle;Signal;HPM_P1;HPM_P2
2023/04/09 00:01:27;;;;;;;44.00;21.55;;;11.60;99.90;;;;;;4974297;28;20054;-89
2023/04/09 00:03:55;;;;;;;44.88;21.80;;;11.70;99.90;;;;;;4991611;28;20098;-89
2023/04/09 00:06:20;;;;;;;42.53;20.90;;;11.70;99.90;;;;;;4986779;28;20022;-86
2023/04/09 00:08:49;;;;;;;40.00;20.73;;;11.70;99.90;;;;;;4975939;28;20106;-90
2023/04/09 00:11:15;;;;;;;44.78;21.48;;;11.60;99.90;;;;;;4972208;28;20021;-88
2023/04/09 00:13:40;;;;;;;43.47;21.88;;;11.60;99.90;;;;;;4989285;28;20386;-90
2023/04/09 00:16:07;;;;;;;39.88;20.92;;;11.60;99.90;;;;;;4970588;28;20518;-90
2023/04/09 00:18:32;;;;;;;41.95;21.95;;;11.60;99.90;;;;;;4969019;28;20451;-89
2023/04/09 00:20:58;;;;;;;40.63;21.90;;;11.60;99.90;;;;;;4970780;28;20021;-89
2023/04/09 00:23:24;;;;;;;41.50;22.38;;;11.60;99.90;;;;;;4986358;28;20041;-91
2023/04/09 00:25:49;;;;;;;41.50;22.33;;;11.50;99.90;;;;;;4970708;28;20366;-91
2023/04/09 00:28:15;;;;;;;43.22;21.92;;;11.50;99.90;;;;;;4971644;28;20065;-86
2023/04/09 00:30:43;;;;;;;46.85;23.58;;;11.50;99.90;;;;;;4970273;28;20477;-88
2023/04/09 00:33:09;;;;;;;42.80;21.50;;;11.50;99.90;;;;;;4961061;28;20041;-90
2023/04/09 00:35:35;;;;;;;46.08;21.80;;;11.40;99.90;;;;;;4987862;28;20026;-89
2023/04/09 00:38:00;;;;;;;47.15;22.58;;;11.40;99.90;;;;;;4966481;28;20065;-89
2023/04/09 00:40:26;;;;;;;45.83;22.73;;;11.40;99.90;;;;;;4969362;28;20026;-90
2023/04/09 00:42:51;;;;;;;43.80;22.27;;;11.30;99.90;;;;;;4977212;28;20066;-90
2023/04/09 00:45:17;;;;;;;44.70;22.48;;;11.20;99.90;;;;;;4985927;28;20365;-90
2023/04/09 00:47:45;;;;;;;42.83;22.35;;;11.20;99.90;;;;;;4985378;28;20109;-88
2023/04/09 00:50:11;;;;;;;45.97;22.65;;;11.20;99.90;;;;;;4987705;28;20959;-90
2023/04/09 00:52:37;;;;;;;45.08;22.48;;;11.10;99.90;;;;;;4969176;28;20104;-88
2023/04/09 00:55:04;;;;;;;45.08;22.27;;;11.10;99.90;;;;;;4988084;28;20030;-89
2023/04/09 00:57:30;;;;;;;40.53;21.83;;;11.00;99.90;;;;;;4973775;28;20054;-89
2023/04/09 00:59:56;;;;;;;45.97;21.75;;;11.00;99.90;;;;;;4975168;28;20026;-90
2023/04/09 01:02:24;;;;;;;49.58;23.33;;;11.00;99.90;;;;;;4976515;28;20037;-88
2023/04/09 01:04:50;;;;;;;45.60;22.10;;;10.90;99.90;;;;;;4969400;28;20019;-86
2023/04/09 01:07:46;;;;;;;42.28;22.25;;;10.80;99.90;;;;;;4967027;28;20498;-90
2023/04/09 01:10:41;;;;;;;45.05;22.52;;;10.70;99.90;;;;;;4985366;28;20509;-88
2023/04/09 01:13:33;;;;;;;49.40;23.15;;;10.60;99.90;;;;;;4970678;28;20026;-89
2023/04/09 01:16:00;;;;;;;46.17;21.50;;;10.40;99.90;;;;;;4955366;28;20045;-91
2023/04/09 01:18:44;;;;;;;44.50;22.70;;;10.30;99.90;;;;;;4973417;28;20030;-88
2023/04/09 01:21:18;;;;;;;44.05;23.08;;;10.20;99.90;;;;;;4966973;28;20026;-89
2023/04/09 01:24:15;;;;;;;46.13;22.50;;;10.10;99.90;;;;;;4969663;28;20397;-89
2023/04/09 01:26:43;;;;;;;45.50;23.45;;;10.10;99.90;;;;;;4962338;28;20022;-90
2023/04/09 01:29:09;;;;;;;46.30;22.73;;;10.00;99.90;;;;;;4985720;28;20037;-89
2023/04/09 01:31:38;;;;;;;46.55;23.13;;;10.00;99.90;;;;;;4965303;28;20580;-89
2023/04/09 01:34:07;;;;;;;43.80;22.70;;;9.90;99.90;;;;;;4968844;28;20406;-90
2023/04/09 01:36:34;;;;;;;49.45;22.92;;;9.90;99.90;;;;;;4968606;28;20026;-88
2023/04/09 01:39:01;;;;;;;44.30;21.77;;;9.80;99.90;;;;;;4968654;28;20026;-88
2023/04/09 01:41:29;;;;;;;49.67;23.42;;;9.80;99.90;;;;;;4985400;28;20655;-86
2023/04/09 01:43:56;;;;;;;43.28;21.00;;;9.70;99.90;;;;;;4967841;28;20045;-90
2023/04/09 01:46:23;;;;;;;45.05;20.90;;;9.70;99.90;;;;;;4984912;28;20094;-90
2023/04/09 01:48:50;;;;;;;46.95;22.88;;;9.60;99.90;;;;;;4976258;28;20018;-89
2023/04/09 01:51:16;;;;;;;46.35;22.55;;;9.60;99.90;;;;;;4965741;28;20125;-91
2023/04/09 01:53:42;;;;;;;43.90;22.35;;;9.60;99.90;;;;;;4965450;28;20034;-90
2023/04/09 01:56:08;;;;;;;45.35;22.42;;;9.60;99.90;;;;;;4971800;28;20174;-90
2023/04/09 01:58:34;;;;;;;41.42;20.38;;;9.60;99.90;;;;;;4985510;28;20353;-89
2023/04/09 02:01:15;;;;;;;41.47;21.25;;;9.70;99.90;;;;;;4968326;28;20037;-91
2023/04/09 02:03:50;;;;;;;44.60;21.27;;;9.70;99.90;;;;;;4966637;28;20049;-91
2023/04/09 02:06:37;;;;;;;42.10;20.48;;;9.70;99.90;;;;;;4958546;28;20019;-91
2023/04/09 02:09:07;;;;;;;44.13;20.98;;;9.70;99.90;;;;;;4981853;28;20501;-90
2023/04/09 02:11:34;;;;;;;47.40;21.00;;;9.70;99.90;;;;;;4967424;28;20030;-91
2023/04/09 02:14:01;;;;;;;45.42;20.75;;;9.60;99.90;;;;;;4974107;28;20019;-92
2023/04/09 02:16:29;;;;;;;46.58;21.85;;;9.60;99.90;;;;;;4965159;28;20019;-93
2023/04/09 02:18:55;;;;;;;45.75;19.88;;;9.50;99.90;;;;;;4974428;28;20057;-87
2023/04/09 02:21:22;;;;;;;44.47;21.42;;;9.40;99.90;;;;;;4985038;28;20029;-88
2023/04/09 02:23:48;;;;;;;41.95;20.48;;;9.40;99.90;;;;;;4998632;28;20451;-89
2023/04/09 02:26:14;;;;;;;43.45;21.42;;;9.30;99.90;;;;;;4991178;28;20026;-87
2023/04/09 02:28:39;;;;;;;46.83;21.65;;;9.30;99.90;;;;;;5003288;28;20045;-92
2023/04/09 02:31:05;;;;;;;48.17;21.65;;;9.20;99.90;;;;;;4981025;28;20034;-91
2023/04/09 02:33:31;;;;;;;40.88;20.35;;;9.20;99.90;;;;;;4966364;28;20078;-92
2023/04/09 02:35:56;;;;;;;40.25;19.80;;;9.10;99.90;;;;;;4969159;28;20050;-92
2023/04/09 02:38:22;;;;;;;50.63;22.00;;;9.10;99.90;;;;;;4975277;28;20026;-90
2023/04/09 02:40:48;;;;;;;43.50;20.58;;;9.00;99.90;;;;;;4974335;28;20090;-90
2023/04/09 02:43:14;;;;;;;44.78;21.58;;;8.90;99.90;;;;;;4968018;28;20065;-89
2023/04/09 02:45:42;;;;;;;41.30;21.58;;;8.90;99.90;;;;;;4968685;28;20057;-92
2023/04/09 02:48:08;;;;;;;45.33;21.42;;;8.80;99.90;;;;;;4966933;28;20033;-91
2023/04/09 02:50:33;;;;;;;42.47;20.88;;;8.70;99.90;;;;;;4966796;28;20121;-92
2023/04/09 02:52:59;;;;;;;45.65;20.85;;;8.70;99.90;;;;;;4971953;28;20083;-88
2023/04/09 02:55:25;;;;;;;43.97;20.88;;;8.60;99.90;;;;;;4983802;28;20119;-92
2023/04/09 02:57:50;;;;;;;43.30;21.92;;;8.50;99.90;;;;;;4968391;28;20113;-90
2023/04/09 03:00:16;;;;;;;40.50;21.60;;;8.50;99.90;;;;;;4975572;28;20082;-87
2023/04/09 03:02:42;;;;;;;41.47;21.42;;;8.40;99.90;;;;;;4988706;28;20173;-88
2023/04/09 03:05:10;;;;;;;47.08;21.23;;;8.40;99.90;;;;;;4965957;28;20033;-92
2023/04/09 03:07:36;;;;;;;46.17;21.92;;;8.40;99.90;;;;;;4967096;28;20018;-89
2023/04/09 03:10:01;;;;;;;44.70;21.20;;;8.40;99.90;;;;;;4968301;28;20049;-91
2023/04/09 03:12:27;;;;;;;44.53;21.00;;;8.30;99.90;;;;;;4966351;28;20029;-88
2023/04/09 03:14:53;;;;;;;47.83;22.45;;;8.30;99.90;;;;;;4993952;28;20090;-87
2023/04/09 03:17:18;;;;;;;43.47;20.98;;;8.30;99.90;;;;;;5003380;28;20062;-87
2023/04/09 03:19:44;;;;;;;44.58;20.65;;;8.30;99.90;;;;;;5007822;28;20779;-87
2023/04/09 03:22:10;;;;;;;43.33;20.80;;;8.20;99.90;;;;;;4992283;28;20616;-88
2023/04/09 03:24:35;;;;;;;42.72;20.80;;;8.20;99.90;;;;;;5006284;28;20114;-90
2023/04/09 03:27:01;;;;;;;45.70;21.55;;;8.20;99.90;;;;;;4994907;28;20037;-89
2023/04/09 03:29:26;;;;;;;48.13;22.02;;;8.10;99.90;;;;;;5005723;28;20058;-88
2023/04/09 03:31:52;;;;;;;44.92;21.40;;;8.10;99.90;;;;;;4991796;28;20018;-88
2023/04/09 03:34:17;;;;;;;45.38;20.77;;;8.10;99.90;;;;;;4997836;28;20157;-88
2023/04/09 03:36:43;;;;;;;42.53;20.25;;;8.00;99.90;;;;;;5000501;28;20031;-88
2023/04/09 03:39:09;;;;;;;47.78;21.00;;;8.00;99.90;;;;;;4992088;28;20034;-90
2023/04/09 03:41:34;;;;;;;44.45;21.05;;;8.00;99.90;;;;;;4988507;28;20110;-89
2023/04/09 03:44:00;;;;;;;43.72;20.05;;;7.90;99.90;;;;;;4993102;28;20689;-89
2023/04/09 03:46:25;;;;;;;44.42;21.35;;;7.90;99.90;;;;;;4987173;28;20410;-90
2023/04/09 03:48:51;;;;;;;41.63;20.00;;;7.80;99.90;;;;;;4993733;28;20594;-90
2023/04/09 03:51:17;;;;;;;41.60;20.30;;;7.80;99.90;;;;;;4977115;28;20037;-91
2023/04/09 03:53:43;;;;;;;45.20;20.52;;;7.80;99.90;;;;;;4976696;28;20474;-92
2023/04/09 03:56:09;;;;;;;44.97;21.25;;;7.70;99.90;;;;;;4985662;28;20031;-92
2023/04/09 03:58:36;;;;;;;41.15;19.70;;;7.70;99.90;;;;;;4987860;28;20106;-91
2023/04/09 04:01:04;;;;;;;48.83;21.33;;;7.70;99.90;;;;;;4968753;28;20024;-87
2023/04/09 04:03:30;;;;;;;42.85;20.17;;;7.60;99.90;;;;;;4967978;28;20483;-92
2023/04/09 04:06:01;;;;;;;45.03;20.45;;;7.60;99.90;;;;;;4970114;28;20030;-89
2023/04/09 04:08:29;;;;;;;46.53;20.90;;;7.60;99.90;;;;;;4967852;28;20034;-90
2023/04/09 04:10:55;;;;;;;53.65;20.42;;;7.50;99.90;;;;;;4968795;28;20027;-92
2023/04/09 04:13:21;;;;;;;42.58;19.95;;;7.60;99.90;;;;;;4969606;28;20019;-92
2023/04/09 04:15:47;;;;;;;43.05;20.25;;;7.50;99.90;;;;;;4965966;28;20118;-93
2023/04/09 04:18:12;;;;;;;42.88;20.05;;;7.50;99.90;;;;;;4968878;28;20101;-93
2023/04/09 04:20:38;;;;;;;44.97;20.23;;;7.40;99.90;;;;;;4969772;28;20463;-93
2023/04/09 04:23:04;;;;;;;41.47;19.33;;;7.40;99.90;;;;;;4982792;28;20480;-91
2023/04/09 04:25:32;;;;;;;45.50;21.05;;;7.40;99.90;;;;;;4961666;28;20046;-92
2023/04/09 04:27:58;;;;;;;48.45;19.73;;;7.30;99.90;;;;;;4981351;28;20023;-91
2023/04/09 04:30:23;;;;;;;42.53;19.38;;;7.30;99.90;;;;;;4970563;28;20053;-92
2023/04/09 04:32:49;;;;;;;48.60;21.15;;;7.30;99.90;;;;;;4966938;28;20034;-92
2023/04/09 04:35:15;;;;;;;44.88;20.65;;;7.30;99.90;;;;;;4982246;28;20505;-88
2023/04/09 04:37:41;;;;;;;45.63;20.33;;;7.30;99.90;;;;;;4969879;28;20026;-91
2023/04/09 04:40:07;;;;;;;43.22;20.65;;;7.20;99.90;;;;;;4977016;28;20019;-90
2023/04/09 04:42:34;;;;;;;48.97;21.58;;;7.20;99.90;;;;;;4984864;28;20019;-88
2023/04/09 04:44:59;;;;;;;45.58;20.60;;;7.20;99.90;;;;;;4975594;28;20068;-91
2023/04/09 04:47:25;;;;;;;43.13;20.98;;;7.10;99.90;;;;;;4969987;28;20054;-86
2023/04/09 04:49:51;;;;;;;48.22;21.35;;;7.10;99.90;;;;;;4960113;28;20022;-92
2023/04/09 04:52:19;;;;;;;45.83;20.70;;;7.10;99.90;;;;;;4968186;28;20126;-90
2023/04/09 04:54:45;;;;;;;45.88;20.02;;;7.10;99.90;;;;;;4966513;28;20018;-91
2023/04/09 04:57:10;;;;;;;44.88;20.35;;;7.10;99.90;;;;;;4987971;28;20040;-92
2023/04/09 04:59:38;;;;;;;48.15;20.20;;;7.10;99.90;;;;;;4973292;28;20019;-92
2023/04/09 05:02:10;;;;;;;45.03;21.23;;;7.10;99.90;;;;;;4968021;28;20030;-91
2023/04/09 05:04:36;;;;;;;52.03;21.92;;;7.10;99.90;;;;;;4961946;28;20030;-91
2023/04/09 05:07:02;;;;;;;49.03;20.58;;;7.10;99.90;;;;;;4964345;28;20022;-89
2023/04/09 05:09:27;;;;;;;49.60;21.98;;;7.00;99.90;;;;;;4968652;28;20041;-90
2023/04/09 05:11:53;;;;;;;45.08;20.35;;;7.00;99.90;;;;;;4969229;28;20387;-91
2023/04/09 05:14:20;;;;;;;44.08;20.17;;;7.10;99.90;;;;;;4968205;28;20475;-89
2023/04/09 05:16:48;;;;;;;45.20;21.75;;;7.10;99.90;;;;;;4969633;28;20018;-87
2023/04/09 05:19:14;;;;;;;46.17;20.10;;;7.10;99.90;;;;;;4963588;28;20056;-90
2023/04/09 05:21:40;;;;;;;49.00;20.98;;;7.00;99.90;;;;;;4966067;28;20118;-90
2023/04/09 05:24:06;;;;;;;46.03;21.90;;;7.10;99.90;;;;;;4968224;28;20039;-91
2023/04/09 05:26:32;;;;;;;47.88;21.30;;;7.00;99.90;;;;;;4974293;28;20449;-92
2023/04/09 05:28:57;;;;;;;48.92;21.60;;;7.10;99.90;;;;;;4972838;28;20093;-88
2023/04/09 05:31:23;;;;;;;47.17;20.50;;;7.20;99.90;;;;;;4967879;28;20022;-92
2023/04/09 05:33:49;;;;;;;53.05;22.15;;;7.10;99.90;;;;;;4977278;28;20038;-88
2023/04/09 05:36:16;;;;;;;49.72;22.02;;;7.20;99.90;;;;;;4985877;28;20033;-89
2023/04/09 05:38:43;;;;;;;46.17;20.73;;;7.20;99.90;;;;;;4986319;28;20018;-92
2023/04/09 05:41:08;;;;;;;45.08;20.52;;;7.20;99.90;;;;;;4976792;28;20057;-92
2023/04/09 05:43:34;;;;;;;56.05;22.58;;;7.20;99.90;;;;;;4975241;28;20065;-88
2023/04/09 05:46:00;;;;;;;54.75;22.58;;;7.30;99.90;;;;;;4963781;28;20552;-93
2023/04/09 05:48:27;;;;;;;50.38;22.60;;;7.30;99.90;;;;;;4967398;28;20033;-91
2023/04/09 05:50:53;;;;;;;49.28;22.95;;;7.30;99.90;;;;;;4974326;28;20030;-90
2023/04/09 05:53:19;;;;;;;49.08;22.48;;;7.30;99.90;;;;;;4971075;28;20033;-92
2023/04/09 05:55:46;;;;;;;50.55;21.60;;;7.40;99.90;;;;;;4970814;28;20147;-92
2023/04/09 05:58:14;;;;;;;50.90;22.38;;;7.40;99.90;;;;;;4981837;28;20038;-87
2023/04/09 06:00:41;;;;;;;52.33;22.27;;;7.40;99.90;;;;;;4992921;28;20022;-92
2023/04/09 06:03:07;;;;;;;48.33;21.77;;;7.50;99.90;;;;;;4983759;28;20042;-91
2023/04/09 06:05:33;;;;;;;48.20;20.85;;;7.50;99.90;;;;;;4999976;28;20483;-91
2023/04/09 06:08:01;;;;;;;53.22;22.67;;;7.60;99.90;;;;;;4969815;28;20030;-89
2023/04/09 06:10:27;;;;;;;48.78;23.02;;;7.60;99.90;;;;;;4965609;28;20022;-88
2023/04/09 06:12:53;;;;;;;53.40;22.02;;;7.70;99.90;;;;;;4984581;28;20030;-95
2023/04/09 06:15:21;;;;;;;50.85;22.17;;;7.80;99.90;;;;;;4970642;28;20034;-95
2023/04/09 06:17:49;;;;;;;55.70;23.40;;;7.80;99.90;;;;;;4974695;28;20306;-93
2023/04/09 06:20:17;;;;;;;49.85;22.50;;;7.80;99.90;;;;;;4994845;28;20022;-90
2023/04/09 06:22:44;;;;;;;51.88;22.52;;;7.90;99.90;;;;;;4974876;28;21157;-94
2023/04/09 06:25:13;;;;;;;50.08;22.77;;;8.00;99.90;;;;;;4984839;28;20315;-93
2023/04/09 06:27:40;;;;;;;48.25;22.13;;;8.00;99.90;;;;;;4988974;28;20052;-93
2023/04/09 06:30:07;;;;;;;47.45;22.88;;;8.10;99.90;;;;;;4977523;28;20018;-92
2023/04/09 06:32:32;;;;;;;49.40;23.20;;;8.20;99.90;;;;;;4989801;28;20833;-92
2023/04/09 06:34:58;;;;;;;55.75;24.00;;;8.20;99.90;;;;;;4978409;28;20041;-92
2023/04/09 06:37:24;;;;;;;51.55;23.60;;;8.30;99.90;;;;;;4973059;28;20026;-88
2023/04/09 06:39:49;;;;;;;53.35;24.40;;;8.40;99.90;;;;;;4969399;28;20022;-90
2023/04/09 06:42:15;;;;;;;55.65;24.30;;;8.40;99.90;;;;;;4978984;28;20479;-89
2023/04/09 06:44:41;;;;;;;54.55;23.58;;;8.40;99.90;;;;;;4968848;28;20042;-92
2023/04/09 06:47:07;;;;;;;49.25;22.48;;;8.40;99.90;;;;;;4986248;28;20022;-90
2023/04/09 06:49:33;;;;;;;56.58;23.88;;;8.50;99.90;;;;;;4971064;28;20647;-93
2023/04/09 06:51:58;;;;;;;53.40;24.65;;;8.50;99.90;;;;;;4966266;28;20121;-95
2023/04/09 06:54:27;;;;;;;55.83;24.17;;;8.50;99.90;;;;;;4967802;28;20023;-90
2023/04/09 06:56:52;;;;;;;50.53;23.48;;;8.50;99.90;;;;;;4966290;28;20034;-92
2023/04/09 06:59:18;;;;;;;51.85;24.00;;;8.60;99.90;;;;;;4970464;28;20130;-93
2023/04/09 07:01:44;;;;;;;50.25;23.63;;;8.60;99.90;;;;;;4970459;28;20076;-93
2023/04/09 07:04:10;;;;;;;50.53;23.17;;;8.70;99.90;;;;;;4970788;28;20128;-93
2023/04/09 07:06:35;;;;;;;49.67;23.02;;;8.90;99.90;;;;;;4974646;28;20207;-93
2023/04/09 07:09:01;;;;;;;54.75;24.13;;;9.00;99.90;;;;;;4967446;28;20022;-89
2023/04/09 07:11:27;;;;;;;50.60;24.08;;;9.10;99.90;;;;;;4966353;28;20662;-92
2023/04/09 07:13:55;;;;;;;42.65;20.80;;;9.10;99.90;;;;;;4970714;28;20026;-94
2023/04/09 07:16:21;;;;;;;49.20;23.33;;;9.20;99.90;;;;;;4962786;28;21567;-91
2023/04/09 07:18:47;;;;;;;51.75;22.75;;;9.30;99.90;;;;;;4966352;28;20033;-87
2023/04/09 07:21:12;;;;;;;51.50;22.50;;;9.40;99.90;;;;;;4973974;28;20029;-90
2023/04/09 07:23:38;;;;;;;49.22;21.50;;;9.50;99.90;;;;;;4977849;28;21016;-94
2023/04/09 07:26:04;;;;;;;42.85;22.05;;;9.60;99.90;;;;;;4987797;28;20033;-92
2023/04/09 07:28:30;;;;;;;46.65;21.52;;;9.70;99.90;;;;;;4983118;28;20019;-89
2023/04/09 07:30:56;;;;;;;50.40;22.75;;;9.70;99.90;;;;;;4967497;28;20509;-92
2023/04/09 07:33:22;;;;;;;40.58;21.25;;;9.80;99.90;;;;;;4981256;28;20133;-93
2023/04/09 07:35:50;;;;;;;43.55;21.95;;;9.90;99.90;;;;;;4968342;28;20057;-92
2023/04/09 07:38:15;;;;;;;42.30;20.42;;;10.00;99.90;;;;;;4967341;28;20034;-87
2023/04/09 07:40:41;;;;;;;40.47;20.80;;;10.20;99.90;;;;;;4984093;28;20026;-92
2023/04/09 07:43:06;;;;;;;40.72;19.83;;;10.30;99.90;;;;;;5007505;28;20031;-92
2023/04/09 07:45:32;;;;;;;41.90;19.88;;;10.40;99.90;;;;;;4993307;28;20029;-91
2023/04/09 07:47:58;;;;;;;43.75;19.85;;;10.50;99.90;;;;;;5004393;28;20079;-96
2023/04/09 07:50:23;;;;;;;41.55;18.48;;;10.50;99.90;;;;;;4966719;28;20010;-89
2023/04/09 07:52:49;;;;;;;37.85;19.88;;;10.60;99.90;;;;;;4967026;28;20406;-93
2023/04/09 07:55:15;;;;;;;41.88;19.48;;;10.60;99.90;;;;;;4966675;28;20109;-93
2023/04/09 07:57:41;;;;;;;36.92;19.05;;;10.70;99.90;;;;;;4956572;28;20043;-93
2023/04/09 08:00:08;;;;;;;39.88;19.77;;;10.70;99.90;;;;;;4967075;28;20023;-93
2023/04/09 08:02:34;;;;;;;38.83;19.77;;;10.90;99.90;;;;;;4966900;28;20030;-94
2023/04/09 08:04:59;;;;;;;35.90;17.85;;;11.00;99.90;;;;;;4961569;28;20022;-87
2023/04/09 08:10:00;;;;;;;38.88;18.70;;;11.30;99.90;;;;;;5091738;23;20054;-92
2023/04/09 08:12:26;;;;;;;34.55;17.17;;;11.60;99.90;;;;;;4970451;28;20030;-95
2023/04/09 08:14:52;;;;;;;32.92;16.52;;;11.80;99.90;;;;;;4956718;28;20015;-89
2023/04/09 08:17:17;;;;;;;35.72;18.25;;;11.90;99.90;;;;;;4967596;28;20027;-95
2023/04/09 08:19:43;;;;;;;35.95;17.25;;;12.10;99.90;;;;;;4967761;28;20034;-94
2023/04/09 08:22:09;;;;;;;31.23;16.27;;;12.30;99.90;;;;;;4970619;28;20198;-93
2023/04/09 08:24:35;;;;;;;31.35;16.25;;;12.50;99.90;;;;;;4980502;28;20136;-91
2023/04/09 08:27:01;;;;;;;32.55;15.93;;;12.60;99.90;;;;;;4975229;28;20014;-95
2023/04/09 08:29:27;;;;;;;31.38;15.80;;;12.80;99.90;;;;;;4979533;28;20081;-96
2023/04/09 08:31:53;;;;;;;28.48;15.05;;;12.90;99.90;;;;;;4980423;28;20049;-96
2023/04/09 08:34:20;;;;;;;30.63;15.70;;;13.20;99.90;;;;;;4964498;28;20431;-83
2023/04/09 08:36:48;;;;;;;27.63;15.55;;;13.30;99.90;;;;;;4982205;28;20042;-96
2023/04/09 08:39:15;;;;;;;26.25;14.43;;;13.70;99.90;;;;;;4983326;28;20101;-93
2023/04/09 08:41:45;;;;;;;27.52;14.60;;;13.90;99.90;;;;;;4971019;28;20148;-96
2023/04/09 08:44:28;;;;;;;27.98;15.25;;;14.00;99.90;;;;;;4982475;28;20038;-91
2023/04/09 08:46:54;;;;;;;27.83;14.63;;;14.10;99.90;;;;;;4968629;28;20031;-96
2023/04/09 08:49:20;;;;;;;28.95;14.75;;;14.20;99.90;;;;;;4991133;28;20497;-95
2023/04/09 08:51:47;;;;;;;27.58;15.80;;;14.50;99.90;;;;;;4982489;28;20027;-94
2023/04/09 08:54:18;;;;;;;30.33;15.95;;;14.80;99.90;;;;;;4981720;28;20114;-92
2023/04/09 08:56:45;;;;;;;30.40;15.45;;;15.00;99.90;;;;;;4978634;28;20048;-91
2023/04/09 08:59:17;;;;;;;247.27;108.72;;;15.30;99.90;;;;;;4987549;28;20058;-96
2023/04/09 09:01:45;;;;;;;27.27;14.43;;;15.40;99.90;;;;;;4972830;28;20034;-83
2023/04/09 09:04:11;;;;;;;28.00;14.32;;;15.70;99.90;;;;;;4968772;28;20065;-83
2023/04/09 09:06:38;;;;;;;23.38;13.48;;;16.00;99.90;;;;;;4967750;28;20466;-83
2023/04/09 09:09:14;;;;;;;26.63;14.23;;;15.90;99.90;;;;;;4977632;28;20031;-83
2023/04/09 09:11:45;;;;;;;22.10;13.85;;;15.90;99.90;;;;;;4961205;28;20023;-83
2023/04/09 09:14:13;;;;;;;24.70;14.63;;;16.10;99.90;;;;;;4963283;28;20109;-85
2023/04/09 09:16:43;;;;;;;25.90;15.20;;;16.30;99.90;;;;;;4965167;28;20027;-84
2023/04/09 09:19:38;;;;;;;26.52;14.73;;;16.70;99.90;;;;;;4963524;28;20043;-82
2023/04/09 09:22:07;;;;;;;22.55;13.10;;;17.10;99.90;;;;;;4968668;28;20525;-82
2023/04/09 09:24:46;;;;;;;21.58;12.00;;;17.40;98.20;;;;;;4972742;28;20045;-84
2023/04/09 09:27:35;;;;;;;20.23;11.88;;;17.40;97.50;;;;;;4963046;28;20092;-86
2023/04/09 09:30:05;;;;;;;289.75;118.53;;;17.50;94.90;;;;;;4964808;28;20026;-90
2023/04/09 09:32:34;;;;;;;20.42;12.50;;;17.60;95.40;;;;;;4963270;28;20105;-84
2023/04/09 09:35:05;;;;;;;25.77;12.38;;;18.00;94.20;;;;;;4967450;28;20033;-95
2023/04/09 09:37:32;;;;;;;23.60;13.32;;;18.30;94.10;;;;;;4983969;28;20044;-95
2023/04/09 09:39:59;;;;;;;22.15;13.15;;;19.10;93.20;;;;;;4991889;28;20054;-86
2023/04/09 09:42:27;;;;;;;17.52;11.32;;;19.50;93.30;;;;;;4983741;28;20462;-85
2023/04/09 09:44:54;;;;;;;16.40;11.23;;;19.50;91.00;;;;;;4965628;28;20519;-85
2023/04/09 09:47:20;;;;;;;17.88;10.15;;;19.60;89.60;;;;;;4968654;28;20113;-87
2023/04/09 09:49:50;;;;;;;16.48;10.43;;;19.70;86.40;;;;;;4964546;28;20116;-85
2023/04/09 09:52:23;;;;;;;13.57;9.65;;;19.50;86.10;;;;;;4976398;28;20134;-85
2023/04/09 09:55:00;;;;;;;12.35;8.65;;;19.80;84.10;;;;;;4980985;28;20633;-85
2023/04/09 09:57:31;;;;;;;13.23;8.88;;;20.60;80.40;;;;;;4992871;28;20185;-85
2023/04/09 10:00:07;;;;;;;13.85;9.25;;;21.10;77.90;;;;;;4980626;28;20112;-85
2023/04/09 10:02:52;;;;;;;12.30;8.52;;;21.90;73.90;;;;;;4971800;28;20371;-85
2023/04/09 10:05:21;;;;;;;11.00;8.18;;;22.10;72.50;;;;;;4960218;28;20084;-86
2023/04/09 10:07:48;;;;;;;12.18;8.18;;;21.70;70.30;;;;;;4975109;28;20031;-86
2023/04/09 10:10:15;;;;;;;10.98;7.75;;;21.50;69.80;;;;;;4961286;28;20414;-86
2023/04/09 10:12:42;;;;;;;10.38;7.13;;;21.30;67.60;;;;;;4978524;28;20031;-86
2023/04/09 10:15:08;;;;;;;11.57;7.43;;;21.00;66.20;;;;;;4960769;28;20031;-86
2023/04/09 10:17:35;;;;;;;10.60;7.78;;;20.80;64.20;;;;;;4964340;28;20080;-85
2023/04/09 10:20:10;;;;;;;9.98;7.57;;;20.70;66.30;;;;;;4967818;28;20034;-86
2023/04/09 10:22:36;;;;;;;11.15;7.35;;;20.40;66.30;;;;;;4988817;28;20517;-86
2023/04/09 10:25:03;;;;;;;10.90;7.03;;;20.00;67.00;;;;;;4961052;28;20055;-87
2023/04/09 10:27:30;;;;;;;9.73;7.35;;;19.40;69.70;;;;;;4960845;28;20109;-86
2023/04/09 10:29:55;;;;;;;9.98;6.95;;;19.60;68.60;;;;;;4974547;28;20019;-86
2023/04/09 10:32:25;;;;;;;11.68;7.82;;;19.80;67.50;;;;;;4966639;28;20030;-86
2023/04/09 10:34:54;;;;;;;11.77;8.07;;;19.60;68.60;;;;;;4962600;28;20125;-86
2023/04/09 10:37:22;;;;;;;13.75;8.00;;;19.10;69.50;;;;;;4978351;28;20014;-88
2023/04/09 10:39:52;;;;;;;18.05;9.38;;;18.80;71.90;;;;;;4963674;28;20422;-84
2023/04/09 10:42:20;;;;;;;15.65;9.82;;;18.90;73.20;;;;;;4963923;28;20169;-89
2023/04/09 10:45:10;;;;;;;15.10;9.25;;;18.80;71.40;;;;;;4966810;28;20290;-88
2023/04/09 10:47:38;;;;;;;15.68;9.75;;;19.20;72.70;;;;;;4991510;28;20052;-88
2023/04/09 10:50:31;;;;;;;15.48;9.77;;;19.50;70.50;;;;;;4960096;28;20041;-88
2023/04/09 10:52:59;;;;;;;16.83;10.05;;;18.60;68.90;;;;;;4971499;28;20039;-88
2023/04/09 10:55:38;;;;;;;15.68;9.98;;;18.40;73.00;;;;;;4969877;28;20030;-90
2023/04/09 10:58:11;;;;;;;16.77;10.57;;;18.00;72.70;;;;;;4964248;28;20033;-89
2023/04/09 11:00:47;;;;;;;21.23;11.13;;;18.30;73.10;;;;;;4978429;28;20525;-91
2023/04/09 11:03:21;;;;;;;16.77;10.43;;;18.80;74.30;;;;;;4958102;28;20030;-85
2023/04/09 11:05:55;;;;;;;15.98;9.48;;;19.70;72.00;;;;;;4974078;28;20023;-85
2023/04/09 11:08:21;;;;;;;12.07;7.72;;;20.00;68.50;;;;;;4977194;28;20084;-90
2023/04/09 11:10:47;;;;;;;13.52;8.40;;;19.60;68.10;;;;;;4995446;28;20035;-93
2023/04/09 11:13:18;;;;;;;15.75;8.13;;;19.70;67.80;;;;;;4966573;28;20038;-88
2023/04/09 11:15:47;;;;;;;156.82;61.28;;;19.70;69.30;;;;;;4958985;28;20155;-84
2023/04/09 11:18:21;;;;;;;18.77;9.43;;;20.10;69.10;;;;;;4964718;28;20038;-93
2023/04/09 11:20:47;;;;;;;12.05;8.20;;;20.10;66.50;;;;;;4969168;28;20131;-93
2023/04/09 11:23:13;;;;;;;13.38;7.68;;;19.80;67.60;;;;;;4965261;28;20026;-93
2023/04/09 11:25:41;;;;;;;12.80;8.07;;;19.80;68.00;;;;;;4967149;28;20034;-92
2023/04/09 11:28:07;;;;;;;10.43;7.97;;;19.40;69.30;;;;;;4964876;28;20029;-93
2023/04/09 11:30:34;;;;;;;11.32;7.47;;;19.70;68.40;;;;;;4950012;28;20038;-96
2023/04/09 11:33:01;;;;;;;13.23;8.48;;;19.80;67.60;;;;;;4965367;28;20074;-94
2023/04/09 11:35:27;;;;;;;11.85;7.82;;;20.20;68.70;;;;;;4984565;28;20037;-95
2023/04/09 11:37:55;;;;;;;11.43;7.45;;;20.70;67.40;;;;;;4980939;28;20041;-94
2023/04/09 11:40:23;;;;;;;11.30;7.45;;;21.40;65.10;;;;;;4989697;28;20013;-95
2023/04/09 11:42:52;;;;;;;10.00;6.72;;;21.60;62.10;;;;;;4967220;28;20015;-93
2023/04/09 11:47:50;;;;;;;14.18;7.38;;;21.30;60.80;;;;;;4990889;28;20031;-96
2023/04/09 11:50:17;;;;;;;9.57;6.60;;;21.30;59.30;;;;;;4957319;29;20032;-96
2023/04/09 11:52:45;;;;;;;7.10;6.05;;;21.40;59.80;;;;;;4943958;29;20085;-96
2023/04/09 11:55:22;;;;;;;9.60;6.25;;;21.10;58.80;;;;;;4953520;29;20046;-94
2023/04/09 11:57:53;;;;;;;8.02;6.18;;;20.70;58.20;;;;;;4935168;29;20027;-94
2023/04/09 12:00:23;;;;;;;8.07;5.60;;;20.40;58.20;;;;;;4955338;29;20027;-93
2023/04/09 12:02:57;;;;;;;9.35;6.20;;;19.80;59.90;;;;;;4954888;29;20034;-93
2023/04/09 12:05:29;;;;;;;6.20;5.47;;;19.90;61.80;;;;;;4932214;29;20024;-96
2023/04/09 12:08:00;;;;;;;10.27;6.75;;;20.90;60.60;;;;;;4947432;29;20071;-93
2023/04/09 12:10:28;;;;;;;7.88;6.22;;;21.30;59.20;;;;;;4936444;29;20024;-93
2023/04/09 12:12:55;;;;;;;8.70;6.43;;;21.30;57.50;;;;;;4939469;28;20046;-94
2023/04/09 12:15:25;;;;;;;12.52;6.45;;;21.00;58.50;;;;;;5212831;22;20033;-95
2023/04/09 12:17:55;;;;;;;11.93;7.18;;;21.50;59.10;;;;;;5016470;28;20053;-92
2023/04/09 12:20:38;;;;;;;10.15;6.90;;;21.80;58.40;;;;;;4971956;28;20054;-94
2023/04/09 12:23:06;;;;;;;9.20;5.70;;;21.60;59.50;;;;;;4984992;28;20037;-95
2023/04/09 12:25:35;;;;;;;8.00;5.90;;;21.80;57.30;;;;;;4996366;28;20022;-94
2023/04/09 12:28:02;;;;;;;7.45;5.75;;;21.80;56.30;;;;;;5003925;28;20049;-94
2023/04/09 12:30:28;;;;;;;6.72;5.75;;;21.80;55.30;;;;;;4982400;28;20019;-93
2023/04/09 12:32:55;;;;;;;8.38;5.53;;;21.50;55.40;;;;;;4972479;28;20033;-94
2023/04/09 12:35:22;;;;;;;8.65;6.07;;;21.20;55.70;;;;;;4994059;28;20054;-93
2023/04/09 12:37:50;;;;;;;8.38;6.00;;;21.10;56.30;;;;;;5002533;28;20039;-94
2023/04/09 12:40:16;;;;;;;8.15;6.07;;;20.70;58.10;;;;;;5016067;28;20035;-94
2023/04/09 12:42:43;;;;;;;8.70;6.05;;;20.40;56.60;;;;;;5016291;28;20019;-89